Time;durP1;ratioP1;P1;durP2;ratioP2;P2;SDS_P1;SDS_P2;PMS_P1;PMS_P2;Temp;Humidity;BMP_temperature;BMP_pressure;BME280_temperature;BME280_humidity;BME280_pressure;Samples;Min_cycle;Max_cycle;Signal;HPM_P1;HPM_P2
2021/03/26 00:02:16;;;;;;;1.47;1.37;;;7.00;99.90;;;;;;4970198;28;20337;-87
2021/03/26 00:04:42;;;;;;;0.80;0.80;;;7.00;99.90;;;;;;4968492;28;20267;-87
2021/03/26 00:07:09;;;;;;;1.17;1.00;;;7.00;99.90;;;;;;4986230;28;20330;-87
2021/03/26 00:09:37;;;;;;;0.57;0.53;;;7.00;99.90;;;;;;5001724;28;20195;-87
2021/03/26 00:12:13;;;;;;;1.50;1.07;;;7.00;99.90;;;;;;4987477;28;20217;-87
2021/03/26 00:14:39;;;;;;;3.33;1.93;;;7.00;99.90;;;;;;5004161;28;20235;-87
2021/03/26 00:17:05;;;;;;;1.80;1.50;;;6.90;99.90;;;;;;4986309;28;20222;-87
2021/03/26 00:19:31;;;;;;;1.13;0.90;;;6.90;99.90;;;;;;5000939;28;20253;-87
2021/03/26 00:21:57;;;;;;;0.93;0.93;;;6.80;99.90;;;;;;4969620;28;20235;-87
2021/03/26 00:24:23;;;;;;;0.70;0.60;;;6.80;99.90;;;;;;4998406;28;20284;-87
2021/03/26 00:26:49;;;;;;;1.27;1.10;;;6.70;99.90;;;;;;4968540;28;20692;-86
2021/03/26 00:29:14;;;;;;;1.47;1.37;;;6.70;99.90;;;;;;4968825;28;20243;-87
2021/03/26 00:31:41;;;;;;;1.07;0.97;;;6.70;99.90;;;;;;4968678;28;20973;-87
2021/03/26 00:34:08;;;;;;;1.50;1.20;;;6.70;99.90;;;;;;4985669;28;20211;-87
2021/03/26 00:36:34;;;;;;;1.40;1.13;;;6.80;99.90;;;;;;4967208;28;20546;-87
2021/03/26 00:39:02;;;;;;;1.77;1.30;;;6.90;99.90;;;;;;4971453;28;20187;-87
2021/03/26 00:41:27;;;;;;;2.17;1.43;;;6.90;99.90;;;;;;4986367;28;20229;-88
2021/03/26 00:43:53;;;;;;;1.73;1.13;;;6.90;99.90;;;;;;5003774;28;20235;-87
2021/03/26 00:46:19;;;;;;;2.10;1.43;;;6.90;99.90;;;;;;4951992;28;20289;-88
2021/03/26 00:48:45;;;;;;;3.53;1.90;;;6.90;99.90;;;;;;4985372;28;20180;-87
2021/03/26 00:51:11;;;;;;;1.13;0.83;;;6.90;99.90;;;;;;4986214;28;20517;-88
2021/03/26 00:53:36;;;;;;;3.50;1.90;;;6.90;99.90;;;;;;4984216;28;20211;-87
2021/03/26 00:56:04;;;;;;;5.97;1.33;;;6.80;99.90;;;;;;4967565;28;20238;-87
2021/03/26 00:58:30;;;;;;;1.33;1.00;;;6.80;99.90;;;;;;4993684;28;20742;-88
2021/03/26 01:00:56;;;;;;;4.23;2.23;;;6.70;99.90;;;;;;5001265;28;20223;-87
2021/03/26 01:03:26;;;;;;;2.03;1.93;;;6.70;99.90;;;;;;4970788;28;20199;-86
2021/03/26 01:05:55;;;;;;;1.50;1.40;;;6.70;99.90;;;;;;4977263;28;20219;-87
2021/03/26 01:08:22;;;;;;;2.10;1.90;;;6.70;99.90;;;;;;4985417;28;20223;-87
2021/03/26 01:10:57;;;;;;;3.87;1.70;;;6.80;99.90;;;;;;5003960;28;20599;-87
2021/03/26 01:13:23;;;;;;;4.77;2.03;;;6.80;99.90;;;;;;4985479;28;20845;-87
2021/03/26 01:15:49;;;;;;;2.23;1.60;;;6.90;99.90;;;;;;4983433;28;20230;-86
2021/03/26 01:18:27;;;;;;;2.53;2.03;;;6.90;99.90;;;;;;4985958;28;20200;-86
2021/03/26 01:20:56;;;;;;;1.70;1.40;;;6.90;99.90;;;;;;5002188;28;20243;-87
2021/03/26 01:23:22;;;;;;;4.30;2.00;;;7.00;99.90;;;;;;5000609;28;20234;-87
2021/03/26 01:25:49;;;;;;;11.20;2.30;;;7.00;99.90;;;;;;5002160;28;20701;-87
2021/03/26 01:28:21;;;;;;;1.53;1.30;;;7.00;99.90;;;;;;4984609;28;20223;-87
2021/03/26 01:30:48;;;;;;;1.10;1.03;;;7.00;99.90;;;;;;4984029;28;20195;-87
2021/03/26 01:33:14;;;;;;;2.10;2.00;;;7.00;99.90;;;;;;4969399;28;20523;-86
2021/03/26 01:35:40;;;;;;;2.03;1.60;;;7.00;99.90;;;;;;4968202;28;20444;-87
2021/03/26 01:38:07;;;;;;;2.60;1.73;;;7.10;99.90;;;;;;4981973;28;20216;-87
2021/03/26 01:40:50;;;;;;;3.10;1.30;;;7.10;99.90;;;;;;4984384;28;20219;-87
2021/03/26 01:43:25;;;;;;;4.53;1.47;;;7.10;99.90;;;;;;4979718;28;20219;-87
2021/03/26 01:45:52;;;;;;;2.30;1.83;;;7.20;99.90;;;;;;4980878;28;20238;-87
2021/03/26 01:48:34;;;;;;;9.50;2.17;;;7.20;99.90;;;;;;4967321;28;20198;-86
2021/03/26 01:51:02;;;;;;;2.20;2.00;;;7.20;99.90;;;;;;5000460;28;21037;-86
2021/03/26 01:53:29;;;;;;;2.77;1.73;;;7.20;99.90;;;;;;4992437;28;20688;-86
2021/03/26 01:55:57;;;;;;;2.70;2.50;;;7.30;99.90;;;;;;5002021;28;20215;-86
2021/03/26 01:58:27;;;;;;;2.40;2.20;;;7.30;99.90;;;;;;4983366;28;20231;-86
2021/03/26 02:00:59;;;;;;;2.87;2.37;;;7.30;99.90;;;;;;4992932;28;20219;-86
2021/03/26 02:03:35;;;;;;;5.60;2.87;;;7.30;99.90;;;;;;4985391;28;20190;-85
2021/03/26 02:06:08;;;;;;;2.17;1.73;;;7.30;99.90;;;;;;5002168;28;20722;-85
2021/03/26 02:08:36;;;;;;;4.27;2.70;;;7.30;99.90;;;;;;4983623;28;20306;-87
2021/03/26 02:11:30;;;;;;;1.57;1.47;;;7.30;99.90;;;;;;4983905;28;20215;-86
2021/03/26 02:13:57;;;;;;;2.87;2.57;;;7.30;99.90;;;;;;5001618;28;20213;-85
2021/03/26 02:16:24;;;;;;;3.07;2.77;;;7.40;99.90;;;;;;4960052;28;20293;-88
2021/03/26 02:18:50;;;;;;;4.90;2.23;;;7.40;99.90;;;;;;4983557;28;20298;-88
2021/03/26 02:21:21;;;;;;;2.17;1.77;;;7.50;99.90;;;;;;4969719;28;20277;-86
2021/03/26 02:23:48;;;;;;;2.77;1.93;;;7.50;99.90;;;;;;4967003;28;20228;-87
2021/03/26 02:26:22;;;;;;;3.27;1.63;;;7.50;99.90;;;;;;4980917;28;20234;-86
2021/03/26 02:28:50;;;;;;;1.90;1.80;;;7.50;99.90;;;;;;4967988;28;20287;-86
2021/03/26 02:31:16;;;;;;;2.27;1.97;;;7.50;99.90;;;;;;4970931;28;20305;-86
2021/03/26 02:33:43;;;;;;;3.10;2.17;;;7.50;99.90;;;;;;4968728;28;20192;-86
2021/03/26 02:36:20;;;;;;;7.33;2.30;;;7.50;99.90;;;;;;4968361;28;20189;-87
2021/03/26 02:38:50;;;;;;;3.40;1.50;;;7.50;99.90;;;;;;4971728;28;20224;-87
2021/03/26 02:41:25;;;;;;;8.60;1.20;;;7.50;99.90;;;;;;4985246;28;20271;-86
2021/03/26 02:44:03;;;;;;;6.43;2.20;;;7.40;99.90;;;;;;4986548;28;20231;-88
2021/03/26 02:46:37;;;;;;;2.93;1.37;;;7.40;99.90;;;;;;4970919;28;20224;-89
2021/03/26 02:49:10;;;;;;;1.50;1.40;;;7.30;99.90;;;;;;4971129;28;20222;-88
2021/03/26 02:51:43;;;;;;;3.03;1.80;;;7.30;99.90;;;;;;4970609;28;20188;-85
2021/03/26 02:54:36;;;;;;;1.33;1.23;;;7.30;99.90;;;;;;4978160;28;20200;-88
2021/03/26 02:57:14;;;;;;;1.77;1.63;;;7.30;99.90;;;;;;4992511;28;21285;-85
2021/03/26 02:59:45;;;;;;;4.60;1.80;;;7.30;99.90;;;;;;4974722;28;20209;-85
2021/03/26 03:02:13;;;;;;;1.10;1.03;;;7.30;99.90;;;;;;4975764;28;20274;-85
2021/03/26 03:04:58;;;;;;;6.23;2.13;;;7.30;99.90;;;;;;4989775;28;20240;-85
2021/03/26 03:07:27;;;;;;;7.47;1.67;;;7.40;99.90;;;;;;4974533;28;20705;-86
2021/03/26 03:10:12;;;;;;;11.90;1.80;;;7.40;99.90;;;;;;4988448;28;20312;-85
2021/03/26 03:12:40;;;;;;;2.07;1.50;;;7.50;99.90;;;;;;4975835;28;20187;-86
2021/03/26 03:15:13;;;;;;;4.13;0.73;;;7.50;99.90;;;;;;4990275;28;20276;-86
2021/03/26 03:18:02;;;;;;;1.50;1.07;;;7.50;99.90;;;;;;4973943;28;20212;-85
2021/03/26 03:20:50;;;;;;;2.80;1.37;;;7.50;99.90;;;;;;4995000;28;20242;-86
2021/03/26 03:23:33;;;;;;;1.60;1.50;;;7.60;99.90;;;;;;5004920;28;20211;-86
2021/03/26 03:26:12;;;;;;;4.63;1.90;;;7.60;99.90;;;;;;5002502;28;20241;-86
2021/03/26 03:28:50;;;;;;;1.50;1.23;;;7.70;99.90;;;;;;5004707;28;20230;-85
2021/03/26 03:31:32;;;;;;;2.17;1.37;;;7.80;99.90;;;;;;5002196;28;20227;-88
2021/03/26 03:34:21;;;;;;;5.57;1.73;;;7.90;99.90;;;;;;5002364;28;20215;-86
2021/03/26 03:37:00;;;;;;;2.13;1.83;;;7.90;99.90;;;;;;4987297;28;21233;-87
2021/03/26 03:39:46;;;;;;;1.90;1.40;;;7.90;99.90;;;;;;5005883;28;20293;-88
2021/03/26 03:42:26;;;;;;;1.33;1.23;;;8.00;99.90;;;;;;4986052;28;20220;-87
2021/03/26 03:45:05;;;;;;;1.50;1.33;;;8.00;99.90;;;;;;4986519;28;20226;-87
2021/03/26 03:47:51;;;;;;;2.20;1.90;;;8.10;99.90;;;;;;5004667;28;20714;-87
2021/03/26 03:50:50;;;;;;;1.97;1.87;;;8.10;99.90;;;;;;4986133;28;20223;-86
2021/03/26 03:53:21;;;;;;;3.10;1.70;;;8.10;99.90;;;;;;4986083;28;20238;-87
2021/03/26 03:55:57;;;;;;;2.17;1.40;;;8.10;99.90;;;;;;4994853;28;20310;-87
2021/03/26 03:58:40;;;;;;;2.20;1.50;;;8.10;99.90;;;;;;4984051;28;20230;-88
2021/03/26 04:01:06;;;;;;;2.07;1.90;;;8.10;99.90;;;;;;4985888;28;21270;-86
2021/03/26 04:03:51;;;;;;;4.93;1.73;;;8.20;99.90;;;;;;5004602;28;20184;-87
2021/03/26 04:06:28;;;;;;;1.43;1.33;;;8.20;99.90;;;;;;4999110;28;20187;-88
2021/03/26 04:08:58;;;;;;;3.10;1.97;;;8.20;99.90;;;;;;4998450;28;20237;-88
2021/03/26 04:11:33;;;;;;;1.37;1.27;;;8.20;99.90;;;;;;4982696;28;20216;-88
2021/03/26 04:14:06;;;;;;;2.67;1.93;;;8.20;99.90;;;;;;5003232;28;20668;-88
2021/03/26 04:16:32;;;;;;;1.20;1.07;;;8.20;99.90;;;;;;5004077;28;20215;-88
2021/03/26 04:19:30;;;;;;;4.10;2.93;;;8.10;99.90;;;;;;4985647;28;20227;-88
2021/03/26 04:22:05;;;;;;;2.50;2.30;;;8.10;99.90;;;;;;5001347;28;20289;-86
2021/03/26 04:24:43;;;;;;;4.10;1.87;;;8.00;99.90;;;;;;4985575;28;20290;-87
2021/03/26 04:27:18;;;;;;;5.33;2.63;;;8.00;99.90;;;;;;4986350;28;20190;-87
2021/03/26 04:29:55;;;;;;;2.20;2.07;;;7.90;99.90;;;;;;5003534;28;20309;-87
2021/03/26 04:32:23;;;;;;;3.67;3.07;;;7.90;99.90;;;;;;4984315;28;20221;-85
2021/03/26 04:34:50;;;;;;;2.27;2.07;;;7.90;99.90;;;;;;4983690;28;20214;-87
2021/03/26 04:37:31;;;;;;;2.63;2.00;;;7.90;99.90;;;;;;4982865;28;20227;-86
2021/03/26 04:40:10;;;;;;;5.50;3.50;;;7.80;99.90;;;;;;4995122;28;21150;-85
2021/03/26 04:42:51;;;;;;;3.53;2.40;;;7.80;99.90;;;;;;5001990;28;20187;-87
2021/03/26 04:45:38;;;;;;;5.73;3.57;;;7.80;99.90;;;;;;5005213;28;20294;-85
2021/03/26 04:48:07;;;;;;;7.60;3.70;;;7.80;99.90;;;;;;5003135;28;20334;-86
2021/03/26 04:50:38;;;;;;;7.67;3.30;;;7.80;99.90;;;;;;5004080;28;20219;-85
2021/03/26 04:53:07;;;;;;;4.80;2.83;;;7.80;99.90;;;;;;4985587;28;20300;-88
2021/03/26 04:55:37;;;;;;;5.70;3.33;;;7.80;99.90;;;;;;4996364;28;20231;-86
2021/03/26 04:58:06;;;;;;;5.43;2.30;;;7.80;99.90;;;;;;4983880;28;20267;-87
2021/03/26 05:00:50;;;;;;;3.93;2.67;;;7.70;99.90;;;;;;4984870;28;20187;-87
2021/03/26 05:03:20;;;;;;;3.10;2.73;;;7.70;99.90;;;;;;5003811;28;20257;-89
2021/03/26 05:05:51;;;;;;;3.20;2.97;;;7.60;99.90;;;;;;5002919;28;20231;-89
2021/03/26 05:08:19;;;;;;;3.57;3.27;;;7.60;99.90;;;;;;5003061;28;21011;-89
2021/03/26 05:10:48;;;;;;;5.37;3.50;;;7.60;99.90;;;;;;4983596;28;20211;-90
2021/03/26 05:13:40;;;;;;;4.67;4.33;;;7.60;99.90;;;;;;5000827;28;21105;-89
2021/03/26 05:16:15;;;;;;;3.97;3.47;;;7.50;99.90;;;;;;4984275;28;20215;-88
2021/03/26 05:18:48;;;;;;;8.03;2.90;;;7.50;99.90;;;;;;4984723;28;20274;-90
2021/03/26 05:21:33;;;;;;;3.50;3.20;;;7.50;99.90;;;;;;4985752;28;20223;-86
2021/03/26 05:24:06;;;;;;;4.53;4.07;;;7.50;99.90;;;;;;5001074;28;20289;-88
2021/03/26 05:26:35;;;;;;;4.10;3.17;;;7.50;99.90;;;;;;4974891;28;20229;-88
2021/03/26 05:29:03;;;;;;;4.23;3.83;;;7.50;99.90;;;;;;4965709;28;20251;-89
2021/03/26 05:31:53;;;;;;;8.80;4.13;;;7.50;99.90;;;;;;4968278;28;20277;-90
2021/03/26 05:34:36;;;;;;;8.50;4.90;;;7.50;99.90;;;;;;4999801;28;20334;-89
2021/03/26 05:37:20;;;;;;;18.20;4.27;;;7.60;99.90;;;;;;4982754;28;20234;-91
2021/03/26 05:39:53;;;;;;;5.37;3.97;;;7.60;99.90;;;;;;4984502;28;20936;-89
2021/03/26 05:42:37;;;;;;;6.53;4.73;;;7.70;99.90;;;;;;4995621;28;20187;-87
2021/03/26 05:45:26;;;;;;;6.87;4.13;;;7.70;99.90;;;;;;5001044;28;20301;-89
2021/03/26 05:48:26;;;;;;;4.20;3.57;;;7.80;99.90;;;;;;5001101;28;20692;-88
2021/03/26 05:51:17;;;;;;;5.90;3.73;;;7.80;99.90;;;;;;4995671;28;20289;-89
2021/03/26 05:54:07;;;;;;;5.13;4.67;;;7.90;99.90;;;;;;4994721;28;20219;-89
2021/03/26 05:57:04;;;;;;;6.67;4.30;;;8.00;99.90;;;;;;4992624;28;20268;-90
2021/03/26 06:00:02;;;;;;;6.10;3.60;;;7.90;99.90;;;;;;4985122;28;20266;-91
2021/03/26 06:03:11;;;;;;;11.40;3.40;;;7.90;99.90;;;;;;5000534;28;20229;-89
2021/03/26 06:06:14;;;;;;;6.67;4.50;;;8.00;99.90;;;;;;4994487;28;20732;-87
2021/03/26 06:08:55;;;;;;;7.70;3.70;;;8.00;99.90;;;;;;4983784;28;20211;-87
2021/03/26 06:11:59;;;;;;;3.97;3.13;;;8.00;99.90;;;;;;5000616;28;21187;-89
2021/03/26 06:14:50;;;;;;;4.40;3.77;;;8.10;99.90;;;;;;4979022;28;20215;-90
2021/03/26 06:17:37;;;;;;;4.03;3.73;;;8.20;99.90;;;;;;4983912;28;20225;-90
2021/03/26 06:20:45;;;;;;;6.73;3.80;;;8.20;99.90;;;;;;4991795;28;20238;-89
2021/03/26 06:23:32;;;;;;;9.83;4.57;;;8.30;99.90;;;;;;4984990;28;20234;-90
2021/03/26 06:26:38;;;;;;;5.77;4.60;;;8.30;99.90;;;;;;4993064;28;20234;-87
2021/03/26 06:29:26;;;;;;;6.73;3.63;;;8.30;99.90;;;;;;4994919;28;20226;-88
2021/03/26 06:32:11;;;;;;;6.90;4.47;;;8.40;99.90;;;;;;4982345;28;20238;-88
2021/03/26 06:34:54;;;;;;;4.67;3.50;;;8.40;99.90;;;;;;5000903;28;20243;-89
2021/03/26 06:37:26;;;;;;;4.33;3.30;;;8.50;99.90;;;;;;4997059;28;20219;-86
2021/03/26 06:40:30;;;;;;;4.80;3.73;;;8.50;99.90;;;;;;4996744;28;20233;-91
2021/03/26 06:43:05;;;;;;;7.93;4.97;;;8.60;99.90;;;;;;4986896;28;20227;-87
2021/03/26 06:45:47;;;;;;;5.53;5.03;;;8.60;99.90;;;;;;5005154;28;20277;-89
2021/03/26 06:48:38;;;;;;;7.80;5.10;;;8.70;99.90;;;;;;4987854;28;20187;-88
2021/03/26 06:51:16;;;;;;;3.37;3.07;;;8.70;99.90;;;;;;5003485;28;20211;-90
2021/03/26 06:54:00;;;;;;;8.47;4.77;;;8.70;99.90;;;;;;4985851;28;20218;-89
2021/03/26 06:56:48;;;;;;;4.13;3.43;;;8.80;99.90;;;;;;5002540;28;20223;-90
2021/03/26 06:59:32;;;;;;;6.07;3.43;;;8.90;99.90;;;;;;4985915;28;20712;-91
2021/03/26 07:02:10;;;;;;;8.70;5.30;;;9.00;99.90;;;;;;5003606;28;20218;-87
2021/03/26 07:05:00;;;;;;;7.80;4.63;;;9.00;99.90;;;;;;4998159;28;20268;-88
2021/03/26 07:07:29;;;;;;;5.03;3.13;;;9.20;99.90;;;;;;4992868;28;20223;-88
2021/03/26 07:10:20;;;;;;;10.07;6.47;;;9.20;99.90;;;;;;4997187;28;20335;-87
2021/03/26 07:13:23;;;;;;;9.77;5.20;;;9.30;99.90;;;;;;4992265;28;20195;-88
2021/03/26 07:16:11;;;;;;;6.80;4.30;;;9.30;99.90;;;;;;4999883;28;20664;-89
2021/03/26 07:18:59;;;;;;;11.80;5.00;;;9.30;99.90;;;;;;4985656;28;20194;-88
2021/03/26 07:21:28;;;;;;;5.00;4.33;;;9.30;99.90;;;;;;5004198;28;20665;-84
2021/03/26 07:24:17;;;;;;;15.60;7.03;;;9.40;99.90;;;;;;5004290;28;20227;-88
2021/03/26 07:27:21;;;;;;;13.10;5.97;;;9.50;99.90;;;;;;5003065;28;20218;-86
2021/03/26 07:30:10;;;;;;;9.63;6.53;;;9.50;99.90;;;;;;4942500;28;20216;-88
2021/03/26 07:32:54;;;;;;;7.80;6.90;;;9.60;99.90;;;;;;4992817;28;20235;-87
2021/03/26 07:35:42;;;;;;;12.33;6.00;;;9.70;99.90;;;;;;4995772;28;20218;-87
2021/03/26 07:38:11;;;;;;;3.67;3.30;;;9.70;99.90;;;;;;5001200;28;20223;-89
2021/03/26 07:41:21;;;;;;;9.37;6.40;;;9.80;99.90;;;;;;4986090;28;20302;-87
2021/03/26 07:43:47;;;;;;;7.47;4.80;;;9.90;99.90;;;;;;4983104;28;20207;-88
2021/03/26 07:46:28;;;;;;;5.87;5.03;;;9.80;99.90;;;;;;5005055;28;21062;-86
2021/03/26 07:49:32;;;;;;;8.03;6.33;;;9.90;99.90;;;;;;4985701;28;20253;-86
2021/03/26 07:52:09;;;;;;;15.47;8.20;;;10.00;99.90;;;;;;4979622;28;20230;-86
2021/03/26 07:55:08;;;;;;;10.40;6.17;;;10.10;99.90;;;;;;4986261;28;20660;-86
2021/03/26 07:57:49;;;;;;;7.20;4.77;;;10.10;99.90;;;;;;4986117;28;20326;-90
2021/03/26 08:00:45;;;;;;;7.57;5.50;;;10.00;99.90;;;;;;5005336;28;20229;-87
2021/03/26 08:03:37;;;;;;;9.53;5.43;;;10.10;99.90;;;;;;5004197;28;20223;-88
2021/03/26 08:06:25;;;;;;;9.33;5.53;;;10.20;99.90;;;;;;5002557;28;20231;-89
2021/03/26 08:09:21;;;;;;;13.50;6.93;;;10.20;99.90;;;;;;5004036;28;20212;-89
2021/03/26 08:12:05;;;;;;;9.10;5.60;;;10.30;99.90;;;;;;4981967;28;20279;-87
2021/03/26 08:15:05;;;;;;;4.80;3.93;;;10.50;99.90;;;;;;4982437;28;20222;-88
2021/03/26 08:18:02;;;;;;;7.57;5.07;;;10.50;99.90;;;;;;5000089;28;20238;-86
2021/03/26 08:20:33;;;;;;;8.27;4.37;;;10.50;99.90;;;;;;5000890;28;20254;-87
2021/03/26 08:23:22;;;;;;;11.77;5.50;;;10.70;99.90;;;;;;4985439;28;20219;-88
2021/03/26 08:26:09;;;;;;;12.33;4.80;;;10.90;99.90;;;;;;4983755;28;20242;-87
2021/03/26 08:28:57;;;;;;;16.00;7.37;;;11.30;99.90;;;;;;5001690;28;20247;-86
2021/03/26 08:31:41;;;;;;;9.27;5.30;;;11.50;99.90;;;;;;4986443;28;20223;-87
2021/03/26 08:34:45;;;;;;;7.13;4.27;;;11.40;99.90;;;;;;4983313;28;20240;-88
2021/03/26 08:37:28;;;;;;;10.53;5.70;;;11.50;99.90;;;;;;4996216;28;20219;-89
2021/03/26 08:39:58;;;;;;;10.90;6.00;;;11.70;99.90;;;;;;4984475;28;20235;-87
2021/03/26 08:42:28;;;;;;;10.93;7.93;;;11.90;99.90;;;;;;4987313;28;20187;-89
2021/03/26 08:45:08;;;;;;;11.47;5.53;;;12.10;99.90;;;;;;4995524;28;20247;-86
2021/03/26 08:48:05;;;;;;;8.13;4.43;;;12.20;99.90;;;;;;5001176;28;20250;-88
2021/03/26 08:50:56;;;;;;;11.00;5.33;;;12.10;99.90;;;;;;4999589;28;20688;-87
2021/03/26 08:53:39;;;;;;;10.23;5.60;;;12.70;99.90;;;;;;4994326;28;20649;-89
2021/03/26 08:56:25;;;;;;;9.40;5.77;;;13.10;99.90;;;;;;4998158;28;20219;-87
2021/03/26 08:59:12;;;;;;;13.00;6.30;;;12.80;99.90;;;;;;4999353;28;20404;-88
2021/03/26 09:02:02;;;;;;;6.40;4.47;;;12.80;99.90;;;;;;5004479;28;20261;-89
2021/03/26 09:04:28;;;;;;;7.30;4.60;;;12.50;99.90;;;;;;4994139;28;20235;-88
2021/03/26 09:07:21;;;;;;;8.20;4.97;;;12.90;99.90;;;;;;4985576;28;20225;-88
2021/03/26 09:10:43;;;;;;;5.97;3.73;;;12.90;99.90;;;;;;4992665;28;20569;-89
2021/03/26 09:13:31;;;;;;;9.43;5.13;;;13.50;99.90;;;;;;4939958;28;20224;-89
2021/03/26 09:16:02;;;;;;;12.27;5.30;;;14.40;99.90;;;;;;4921053;29;20229;-87
2021/03/26 09:18:50;;;;;;;11.33;4.80;;;14.40;99.90;;;;;;4986837;28;20228;-88
2021/03/26 09:21:34;;;;;;;7.60;5.13;;;14.40;99.90;;;;;;4988337;28;20844;-88
2021/03/26 09:24:18;;;;;;;8.97;5.17;;;14.10;99.90;;;;;;4997016;28;20226;-88
2021/03/26 09:26:58;;;;;;;9.03;5.20;;;13.80;99.90;;;;;;4980010;28;20222;-87
2021/03/26 09:29:56;;;;;;;8.57;4.90;;;13.40;99.90;;;;;;4988409;28;20245;-90
2021/03/26 09:32:32;;;;;;;10.10;4.70;;;13.40;99.90;;;;;;4980631;28;20282;-88
2021/03/26 09:35:20;;;;;;;7.77;5.97;;;13.10;99.90;;;;;;4999308;28;20222;-89
2021/03/26 09:38:05;;;;;;;9.33;4.77;;;13.10;99.90;;;;;;4979258;28;20223;-88
2021/03/26 09:40:51;;;;;;;15.63;5.67;;;13.30;99.90;;;;;;4997184;28;20237;-89
2021/03/26 09:43:25;;;;;;;13.27;6.10;;;13.50;99.90;;;;;;5001050;28;20293;-89
2021/03/26 09:45:53;;;;;;;13.13;6.33;;;13.80;99.90;;;;;;4990915;28;20236;-89
2021/03/26 09:48:34;;;;;;;8.67;4.50;;;14.20;99.90;;;;;;5001695;28;20203;-88
2021/03/26 09:51:12;;;;;;;7.43;5.00;;;14.10;99.90;;;;;;5001146;28;20250;-88
2021/03/26 09:53:40;;;;;;;6.80;4.93;;;13.90;99.90;;;;;;4994338;28;20269;-88
2021/03/26 09:56:16;;;;;;;8.67;4.60;;;14.20;99.90;;;;;;4983990;28;20851;-87
2021/03/26 09:58:55;;;;;;;10.03;4.60;;;14.40;99.90;;;;;;4993958;28;20253;-88
2021/03/26 10:01:35;;;;;;;9.10;5.90;;;14.20;99.90;;;;;;4986426;28;20242;-88
2021/03/26 10:04:29;;;;;;;7.40;5.53;;;14.50;99.90;;;;;;4984417;28;21232;-89
2021/03/26 10:07:16;;;;;;;3.80;3.23;;;14.70;99.90;;;;;;4997946;28;20222;-91
2021/03/26 10:10:43;;;;;;;7.10;5.40;;;15.00;99.90;;;;;;4980945;28;20188;-88
2021/03/26 10:12:40;;;;;;;6.37;4.13;;;15.50;99.90;;;;;;5000768;28;20664;-88
2021/03/26 10:15:19;;;;;;;6.67;4.33;;;16.50;99.90;;;;;;4979604;28;20225;-90
2021/03/26 10:17:53;;;;;;;7.50;3.90;;;16.90;99.90;;;;;;5002129;28;20226;-89
2021/03/26 10:20:23;;;;;;;6.10;3.90;;;16.40;99.90;;;;;;4993912;28;20246;-88
2021/03/26 10:23:04;;;;;;;6.63;4.63;;;16.10;99.90;;;;;;5001508;28;20707;-89
2021/03/26 10:25:48;;;;;;;5.93;4.27;;;16.30;99.90;;;;;;4991771;28;20589;-88
2021/03/26 10:28:32;;;;;;;9.77;5.30;;;16.30;99.90;;;;;;4999562;28;21436;-88
2021/03/26 10:31:09;;;;;;;8.63;5.40;;;16.50;99.90;;;;;;4993789;28;20307;-89
2021/03/26 10:34:00;;;;;;;6.70;3.47;;;16.20;99.90;;;;;;4983507;28;20180;-90
2021/03/26 10:36:56;;;;;;;5.23;3.20;;;16.20;99.90;;;;;;4984070;28;20183;-89
2021/03/26 10:39:21;;;;;;;7.47;3.63;;;16.80;99.90;;;;;;5000474;28;20265;-89
2021/03/26 10:41:47;;;;;;;6.50;4.53;;;17.40;99.90;;;;;;4982844;28;20215;-90
2021/03/26 10:44:20;;;;;;;8.77;3.43;;;18.00;99.90;;;;;;4983162;28;20237;-88
2021/03/26 10:46:51;;;;;;;7.93;4.00;;;17.40;99.90;;;;;;5001061;28;20588;-89
2021/03/26 10:49:25;;;;;;;6.57;3.97;;;17.60;99.90;;;;;;5001236;28;20207;-90
2021/03/26 10:52:02;;;;;;;6.60;3.13;;;17.50;99.90;;;;;;4983246;28;20222;-89
2021/03/26 10:54:34;;;;;;;7.83;3.83;;;17.80;99.90;;;;;;4984989;28;20183;-89
2021/03/26 10:57:28;;;;;;;8.17;3.83;;;17.40;99.90;;;;;;5002640;28;20223;-89
2021/03/26 10:59:53;;;;;;;6.37;3.73;;;17.50;99.90;;;;;;4992234;28;20224;-90
2021/03/26 11:02:57;;;;;;;5.03;3.83;;;17.80;99.90;;;;;;4984440;28;20223;-89
2021/03/26 11:05:45;;;;;;;7.73;3.87;;;17.50;99.90;;;;;;4999224;28;20240;-91
2021/03/26 11:08:18;;;;;;;5.93;4.13;;;17.70;99.90;;;;;;4985564;28;21020;-91
2021/03/26 11:10:51;;;;;;;8.60;4.43;;;17.60;99.90;;;;;;4984916;28;20265;-90
2021/03/26 11:13:46;;;;;;;6.53;3.73;;;17.20;99.90;;;;;;4985467;28;20223;-89
2021/03/26 11:16:14;;;;;;;9.87;4.07;;;16.80;99.90;;;;;;4998055;28;20223;-90
2021/03/26 11:19:05;;;;;;;10.73;4.57;;;16.90;99.90;;;;;;4993935;28;20191;-91
2021/03/26 11:21:47;;;;;;;5.07;3.80;;;16.90;99.90;;;;;;4999824;28;20203;-90
2021/03/26 11:24:15;;;;;;;10.93;4.30;;;16.10;99.90;;;;;;5004835;28;20696;-91
2021/03/26 11:27:02;;;;;;;8.27;3.87;;;16.40;99.90;;;;;;5003334;28;20219;-91
2021/03/26 11:29:35;;;;;;;4.57;2.97;;;15.90;99.90;;;;;;4985867;28;20253;-89
2021/03/26 11:32:08;;;;;;;7.97;3.40;;;15.30;99.90;;;;;;4986748;28;20249;-90
2021/03/26 11:34:52;;;;;;;7.10;3.33;;;15.40;99.90;;;;;;5005396;28;20221;-90
2021/03/26 11:37:24;;;;;;;6.03;4.60;;;15.60;99.90;;;;;;4984476;28;20227;-89
2021/03/26 11:39:59;;;;;;;7.07;3.37;;;15.60;99.90;;;;;;4982858;28;20227;-92
2021/03/26 11:42:40;;;;;;;9.30;4.63;;;16.10;99.90;;;;;;4987159;28;20187;-90
2021/03/26 11:45:25;;;;;;;4.60;3.33;;;16.50;99.90;;;;;;4987530;28;20234;-89
2021/03/26 11:48:07;;;;;;;4.17;3.13;;;16.30;99.90;;;;;;4986945;28;20218;-92
2021/03/26 11:50:36;;;;;;;6.67;4.90;;;16.10;99.90;;;;;;4987224;28;20253;-91
2021/03/26 11:53:25;;;;;;;8.07;4.47;;;15.90;99.90;;;;;;4996486;28;20215;-90
2021/03/26 11:56:14;;;;;;;5.77;3.63;;;16.10;99.90;;;;;;5003748;28;20223;-89
2021/03/26 11:59:18;;;;;;;5.17;4.27;;;16.40;99.90;;;;;;4987115;28;20227;-89
2021/03/26 12:02:09;;;;;;;5.93;4.40;;;15.80;99.90;;;;;;4956009;28;20232;-88
2021/03/26 12:05:01;;;;;;;5.60;4.03;;;15.90;99.90;;;;;;4986459;28;20223;-90
2021/03/26 12:07:36;;;;;;;5.47;3.07;;;16.00;99.90;;;;;;4981265;28;20281;-89
2021/03/26 12:10:13;;;;;;;5.23;3.57;;;15.80;99.90;;;;;;4991835;28;20246;-88
2021/03/26 12:12:45;;;;;;;6.40;3.30;;;15.90;99.90;;;;;;5000413;28;20191;-90
2021/03/26 12:15:19;;;;;;;6.30;4.43;;;15.80;99.90;;;;;;4985891;28;20184;-88
2021/03/26 12:18:23;;;;;;;6.07;4.23;;;15.70;99.90;;;;;;4985474;28;20233;-90
2021/03/26 12:20:50;;;;;;;6.47;3.97;;;15.40;99.90;;;;;;4988858;28;20271;-92
2021/03/26 12:23:35;;;;;;;6.43;3.67;;;15.30;99.90;;;;;;4955647;28;20247;-89
2021/03/26 12:26:23;;;;;;;3.23;2.93;;;15.40;99.90;;;;;;4972315;28;20232;-90
2021/03/26 12:28:52;;;;;;;4.03;2.87;;;15.40;99.90;;;;;;4972345;28;20225;-87
2021/03/26 12:31:37;;;;;;;3.30;2.50;;;15.40;99.90;;;;;;4971513;28;20291;-89
2021/03/26 12:34:25;;;;;;;9.33;3.53;;;15.20;99.90;;;;;;4970158;28;20223;-89
2021/03/26 12:37:03;;;;;;;13.80;4.03;;;15.10;99.90;;;;;;4970056;28;20232;-92
2021/03/26 12:39:42;;;;;;;4.53;3.57;;;15.00;99.90;;;;;;4990020;28;20275;-91
2021/03/26 12:42:08;;;;;;;4.17;2.87;;;15.00;99.90;;;;;;4972736;28;20311;-89
2021/03/26 12:44:42;;;;;;;8.90;3.50;;;15.20;99.90;;;;;;4972131;28;20618;-89
2021/03/26 12:47:29;;;;;;;16.50;3.23;;;15.10;99.90;;;;;;4971696;28;20228;-91
2021/03/26 12:50:01;;;;;;;4.43;3.43;;;15.00;99.90;;;;;;4987218;28;20216;-90
2021/03/26 12:52:33;;;;;;;4.20;3.20;;;14.90;99.90;;;;;;4988274;28;20223;-89
2021/03/26 12:55:05;;;;;;;2.63;2.43;;;14.90;99.90;;;;;;4970544;28;20227;-89
2021/03/26 12:57:46;;;;;;;6.27;3.80;;;14.90;99.90;;;;;;4972414;28;20227;-92
2021/03/26 13:00:43;;;;;;;6.17;4.10;;;15.20;99.90;;;;;;4989745;28;20223;-89
2021/03/26 13:03:18;;;;;;;8.33;4.03;;;15.20;99.90;;;;;;4973349;28;20220;-88
2021/03/26 13:05:56;;;;;;;8.57;4.87;;;15.20;99.90;;;;;;4986252;28;20227;-89
2021/03/26 13:08:27;;;;;;;4.30;3.27;;;15.20;99.90;;;;;;4973466;28;20297;-90
2021/03/26 13:11:15;;;;;;;4.23;3.80;;;15.30;99.90;;;;;;4971316;28;20312;-89
2021/03/26 13:13:54;;;;;;;4.57;3.83;;;15.40;99.90;;;;;;4983956;28;20211;-88
2021/03/26 13:16:32;;;;;;;3.67;3.37;;;14.90;99.90;;;;;;4970417;28;20255;-88
2021/03/26 13:19:01;;;;;;;6.93;3.13;;;14.90;99.90;;;;;;4973853;28;20229;-87
2021/03/26 13:21:48;;;;;;;4.90;3.63;;;15.00;99.90;;;;;;4986369;28;20598;-87
2021/03/26 13:24:17;;;;;;;3.33;3.00;;;14.70;99.90;;;;;;4994473;28;20223;-92
2021/03/26 13:26:43;;;;;;;6.10;3.53;;;14.50;99.90;;;;;;5001204;28;20365;-88
2021/03/26 13:29:25;;;;;;;10.30;4.53;;;14.60;99.90;;;;;;4951873;28;20223;-88
2021/03/26 13:31:55;;;;;;;7.33;3.50;;;14.70;99.90;;;;;;4986442;28;20265;-87
2021/03/26 13:34:34;;;;;;;5.53;3.53;;;14.80;99.90;;;;;;5004242;28;20227;-88
2021/03/26 13:37:22;;;;;;;5.27;3.33;;;14.80;99.90;;;;;;4982900;28;20313;-89
2021/03/26 13:40:00;;;;;;;3.70;3.40;;;14.70;99.90;;;;;;4984774;28;20187;-87
2021/03/26 13:42:44;;;;;;;4.73;3.77;;;14.40;99.90;;;;;;5004762;28;20183;-88
2021/03/26 13:45:18;;;;;;;4.70;3.07;;;14.70;99.90;;;;;;4998944;28;20230;-87
2021/03/26 13:47:52;;;;;;;6.30;3.20;;;14.60;99.90;;;;;;4982428;28;20219;-89
2021/03/26 13:50:23;;;;;;;4.53;3.00;;;14.50;99.90;;;;;;4993869;28;20219;-87
2021/03/26 13:52:55;;;;;;;8.47;3.03;;;14.60;99.90;;;;;;4984359;28;20215;-91